createdAt,value
2023-01-04T00:01:40.121Z,101889.95
2023-01-04T00:04:12.928Z,101888.34
2023-01-04T00:06:46.196Z,101893.45
2023-01-04T00:09:18.889Z,101889.76
2023-01-04T00:11:51.317Z,101886.39
2023-01-04T00:14:23.944Z,101868.77
2023-01-04T00:16:56.982Z,101880.80
2023-01-04T00:19:29.407Z,101879.45
2023-01-04T00:22:01.771Z,101873.73
2023-01-04T00:24:34.388Z,101869.64
2023-01-04T00:27:07.116Z,101867.84
2023-01-04T00:29:39.618Z,101865.20
2023-01-04T00:32:12.351Z,101852.11
2023-01-04T00:34:44.792Z,101874.63
2023-01-04T00:37:17.279Z,101878.28
2023-01-04T00:39:49.716Z,101868.32
2023-01-04T00:42:22.009Z,101872.63
2023-01-04T00:44:54.728Z,101866.52
2023-01-04T00:47:27.381Z,101846.49
2023-01-04T00:49:59.873Z,101864.98
2023-01-04T00:52:32.477Z,101825.98
2023-01-04T00:55:05.005Z,101856.05
2023-01-04T00:57:37.351Z,101845.64
2023-01-04T01:00:11.967Z,101847.71
2023-01-04T01:02:44.677Z,101849.54
2023-01-04T01:05:17.637Z,101848.70
2023-01-04T01:07:50.512Z,101848.94
2023-01-04T01:10:23.697Z,101824.77
2023-01-04T01:12:56.431Z,101839.50
2023-01-04T01:15:29.440Z,101842.05
2023-01-04T01:18:02.345Z,101834.71
2023-01-04T01:20:34.839Z,101834.38
2023-01-04T01:23:07.541Z,101830.11
2023-01-04T01:25:40.087Z,101824.80
2023-01-04T01:28:12.603Z,101805.39
2023-01-04T01:30:45.779Z,101811.18
2023-01-04T01:33:18.481Z,101818.02
2023-01-04T01:35:51.039Z,101813.85
2023-01-04T01:38:23.958Z,101814.49
2023-01-04T01:40:56.548Z,101808.20
2023-01-04T01:43:53.089Z,101801.39
2023-01-04T01:46:31.150Z,101796.69
2023-01-04T01:49:10.533Z,101787.59
2023-01-04T01:51:43.923Z,101782.52
2023-01-04T01:54:20.724Z,101776.33
2023-01-04T01:56:54.994Z,101770.39
2023-01-04T01:59:28.286Z,101761.59
2023-01-04T02:02:00.820Z,101767.96
2023-01-04T02:04:34.099Z,101761.17
2023-01-04T02:07:07.437Z,101752.95
2023-01-04T02:09:41.112Z,101751.04
2023-01-04T02:12:15.677Z,101744.84
2023-01-04T02:14:51.972Z,101746.12
2023-01-04T02:17:37.233Z,101738.84
2023-01-04T02:20:29.328Z,101743.39
2023-01-04T02:23:47.317Z,101741.58
2023-01-04T02:26:49.873Z,101737.77
2023-01-04T02:29:49.199Z,101723.55
2023-01-04T02:32:34.419Z,101724.19
2023-01-04T02:35:17.913Z,101722.85
2023-01-04T02:37:54.781Z,101709.77
2023-01-04T02:40:34.950Z,101705.86
2023-01-04T02:43:34.028Z,101707.91
2023-01-04T02:46:10.889Z,101700.07
2023-01-04T02:49:01.482Z,101715.21
2023-01-04T02:51:36.628Z,101709.52
2023-01-04T02:54:12.012Z,101700.74
2023-01-04T02:57:02.644Z,101693.04
2023-01-04T02:59:58.957Z,101685.09
2023-01-04T03:03:21.927Z,101683.52
2023-01-04T03:06:18.545Z,101684.08
2023-01-04T03:09:04.323Z,101672.98
2023-01-04T03:12:01.498Z,101668.11
2023-01-04T03:14:39.999Z,101648.38
2023-01-04T03:17:17.083Z,101651.45
2023-01-04T03:19:57.030Z,101645.70
2023-01-04T03:22:52.610Z,101640.59
2023-01-04T03:25:48.364Z,101633.77
2023-01-04T03:28:41.930Z,101629.95
2023-01-04T03:31:38.627Z,101624.13
2023-01-04T03:34:29.242Z,101622.04
2023-01-04T03:37:10.158Z,101627.83
2023-01-04T03:40:28.577Z,101630.60
2023-01-04T03:43:23.907Z,101624.48
2023-01-04T03:46:19.361Z,101625.73
2023-01-04T03:48:52.286Z,101633.44
2023-01-04T03:51:28.224Z,101638.23
2023-01-04T03:54:05.696Z,101629.52
2023-01-04T03:56:42.967Z,101608.55
2023-01-04T03:59:15.963Z,101632.38
2023-01-04T04:01:48.553Z,101632.20
2023-01-04T04:04:38.994Z,101634.55
2023-01-04T04:07:29.074Z,101631.64
2023-01-04T04:10:01.575Z,101636.64
2023-01-04T04:12:34.145Z,101617.50
2023-01-04T04:15:07.781Z,101628.90
2023-01-04T04:17:40.785Z,101625.17
2023-01-04T04:20:14.548Z,101615.20
2023-01-04T04:22:47.526Z,101610.41
2023-01-04T04:25:20.404Z,101606.37
2023-01-04T04:27:53.749Z,101594.45
2023-01-04T04:30:26.598Z,101571.64
2023-01-04T04:32:59.572Z,101557.05
2023-01-04T04:35:31.995Z,101552.42
2023-01-04T04:38:04.358Z,101538.21
2023-01-04T04:40:54.115Z,101530.69
2023-01-04T04:43:27.574Z,101519.79
2023-01-04T04:46:00.527Z,101514.64
2023-01-04T04:48:32.966Z,101508.41
2023-01-04T04:51:06.051Z,101494.14
2023-01-04T04:53:38.619Z,101488.55
2023-01-04T04:56:11.721Z,101483.45
2023-01-04T04:58:45.443Z,101482.61
2023-01-04T05:01:18.199Z,101482.83
2023-01-04T05:03:51.147Z,101482.98
2023-01-04T05:06:23.964Z,101468.70
2023-01-04T05:08:56.285Z,101485.84
2023-01-04T05:11:46.241Z,101477.19
2023-01-04T05:14:19.039Z,101471.89
2023-01-04T05:16:51.568Z,101475.40
2023-01-04T05:19:24.277Z,101476.84
2023-01-04T05:21:57.074Z,101469.74
2023-01-04T05:24:29.549Z,101468.22
2023-01-04T05:27:02.242Z,101464.28
2023-01-04T05:29:52.537Z,101436.14
2023-01-04T05:32:25.297Z,101446.09
2023-01-04T05:34:57.636Z,101445.96
2023-01-04T05:37:30.012Z,101446.44
2023-01-04T05:40:02.976Z,101447.70
2023-01-04T05:42:35.996Z,101451.82
2023-01-04T05:45:10.327Z,101441.35
2023-01-04T05:47:44.052Z,101447.20
2023-01-04T05:50:16.397Z,101444.98
2023-01-04T05:52:49.996Z,101440.03
2023-01-04T05:55:23.225Z,101429.55
2023-01-04T05:57:56.825Z,101421.36
2023-01-04T06:00:29.426Z,101418.63
2023-01-04T06:03:02.037Z,101401.01
2023-01-04T06:05:35.022Z,101379.48
2023-01-04T06:08:13.884Z,101388.04
2023-01-04T06:10:58.372Z,101386.19
2023-01-04T06:13:56.059Z,101380.86
2023-01-04T06:16:31.239Z,101374.17
2023-01-04T06:19:04.161Z,101369.42
2023-01-04T06:21:36.519Z,101354.39
2023-01-04T06:24:09.865Z,101362.08
2023-01-04T06:26:44.462Z,101358.95
2023-01-04T06:29:18.098Z,101353.86
2023-01-04T06:31:50.718Z,101348.23
2023-01-04T06:34:30.219Z,101341.02
2023-01-04T06:37:03.638Z,101336.58
2023-01-04T06:39:37.225Z,101321.44
2023-01-04T06:42:31.603Z,101325.95
2023-01-04T06:45:04.091Z,101322.33
2023-01-04T06:47:36.644Z,101325.15
2023-01-04T06:50:10.207Z,101327.23
2023-01-04T06:52:47.059Z,101328.83
2023-01-04T06:55:19.532Z,101333.84
2023-01-04T06:57:59.082Z,101338.90
2023-01-04T07:00:32.375Z,101334.61
2023-01-04T07:03:13.474Z,101333.98
2023-01-04T07:05:47.876Z,101324.73
2023-01-04T07:08:20.260Z,101323.29
2023-01-04T07:10:53.119Z,101309.50
2023-01-04T07:13:25.879Z,101308.15
2023-01-04T07:15:58.461Z,101295.36
2023-01-04T07:18:30.794Z,101271.96
2023-01-04T07:21:03.537Z,101286.81
2023-01-04T07:23:36.044Z,101285.69
2023-01-04T07:26:08.670Z,101279.48
2023-01-04T07:28:58.969Z,101275.30
2023-01-04T07:31:31.952Z,101265.84
2023-01-04T07:34:04.323Z,101262.90
2023-01-04T07:36:37.032Z,101260.06
2023-01-04T07:39:12.530Z,101255.94
2023-01-04T07:41:45.590Z,101254.79
2023-01-04T07:44:18.872Z,101249.15
2023-01-04T07:46:51.954Z,101243.21
2023-01-04T07:49:24.721Z,101218.27
2023-01-04T07:51:57.396Z,101238.73
2023-01-04T07:54:30.127Z,101236.77
2023-01-04T07:57:02.502Z,101231.11
2023-01-04T07:59:34.987Z,101222.54
2023-01-04T08:02:08.602Z,101212.52
2023-01-04T08:04:41.091Z,101211.05
2023-01-04T08:07:14.120Z,101209.89
2023-01-04T08:09:46.526Z,101202.37
2023-01-04T08:12:19.000Z,101191.80
2023-01-04T08:14:51.784Z,101181.71
2023-01-04T08:17:24.174Z,101164.46
2023-01-04T08:19:56.464Z,101173.15
2023-01-04T08:22:29.251Z,101162.17
2023-01-04T08:25:02.010Z,101154.14
2023-01-04T08:27:34.975Z,101147.80
2023-01-04T08:30:09.615Z,101141.98
2023-01-04T08:32:43.328Z,101133.85
2023-01-04T08:35:15.870Z,101124.63
2023-01-04T08:37:48.397Z,101119.58
2023-01-04T08:40:21.189Z,101115.75
2023-01-04T08:42:53.759Z,101113.61
2023-01-04T08:45:27.767Z,101099.59
2023-01-04T08:48:00.479Z,101095.42
2023-01-04T08:50:33.340Z,101088.77
2023-01-04T08:53:06.105Z,101058.19
2023-01-04T08:55:38.500Z,101093.77
2023-01-04T08:58:11.421Z,101087.99
2023-01-04T09:00:43.901Z,101073.66
2023-01-04T09:03:17.088Z,101072.64
2023-01-04T09:05:50.059Z,101065.86
2023-01-04T09:08:23.557Z,101057.27
2023-01-04T09:10:56.066Z,101053.66
2023-01-04T09:13:28.441Z,101044.72
2023-01-04T09:16:04.785Z,101042.55
2023-01-04T09:18:37.874Z,101030.86
2023-01-04T09:21:12.723Z,101030.14
2023-01-04T09:23:44.001Z,101024.34
2023-01-04T09:26:18.287Z,101018.41
2023-01-04T09:28:51.657Z,101013.99
2023-01-04T09:31:27.351Z,101010.22
2023-01-04T09:34:14.100Z,101011.46
2023-01-04T09:36:50.756Z,101000.98
2023-01-04T09:39:23.820Z,100994.88
2023-01-04T09:42:00.142Z,100985.79
2023-01-04T09:47:42.731Z,100958.16
2023-01-04T09:50:19.639Z,100949.26
2023-01-04T09:53:02.346Z,100936.99
2023-01-04T09:55:41.374Z,100916.84
2023-01-04T09:58:24.810Z,100922.21
2023-01-04T10:01:04.987Z,100921.93
2023-01-04T10:03:40.196Z,100915.42
2023-01-04T10:06:16.043Z,100907.62
2023-01-04T10:08:48.807Z,100895.91
2023-01-04T10:11:32.351Z,100886.33
2023-01-04T10:14:30.985Z,100876.00
2023-01-04T10:17:35.477Z,100874.05
2023-01-04T10:23:51.843Z,100848.59
2023-01-04T10:26:29.225Z,100842.88
2023-01-04T10:29:27.126Z,100840.30
2023-01-04T10:32:05.570Z,100835.34
2023-01-04T10:34:43.279Z,100829.92
2023-01-04T10:37:21.181Z,100822.98
2023-01-04T10:39:58.104Z,100815.65
2023-01-04T10:42:35.192Z,100813.74
2023-01-04T10:45:17.743Z,100812.31
2023-01-04T10:48:02.338Z,100811.95
2023-01-04T10:50:42.773Z,100807.98
2023-01-04T10:53:21.800Z,100796.48
2023-01-04T10:56:25.914Z,100793.31
2023-01-04T10:59:01.322Z,100793.63
2023-01-04T11:01:39.702Z,100790.67
2023-01-04T11:04:20.699Z,100789.27
2023-01-04T11:06:59.181Z,100781.43
2023-01-04T11:09:36.743Z,100780.08
2023-01-04T11:12:16.369Z,100778.36
2023-01-04T11:14:49.446Z,100771.15
2023-01-04T11:17:24.685Z,100774.20
2023-01-04T11:19:57.521Z,100763.48
2023-01-04T11:22:37.618Z,100761.48
2023-01-04T11:28:18.224Z,100746.21
2023-01-04T11:30:56.729Z,100733.70
2023-01-04T11:33:29.090Z,100711.44
2023-01-04T11:36:02.995Z,100720.31
2023-01-04T11:38:35.489Z,100692.58
2023-01-04T11:41:09.887Z,100696.48
2023-01-04T11:43:57.288Z,100687.48
2023-01-04T11:46:30.978Z,100680.51
2023-01-04T11:49:03.807Z,100667.90
2023-01-04T11:51:41.156Z,100653.25
2023-01-04T11:54:22.433Z,100648.05
2023-01-04T11:57:20.412Z,100643.14
2023-01-04T12:00:11.489Z,100631.42
2023-01-04T12:03:01.148Z,100622.05
2023-01-04T12:05:35.168Z,100606.82
2023-01-04T12:08:13.667Z,100599.33
2023-01-04T12:10:46.545Z,100593.95
2023-01-04T12:13:19.675Z,100586.91
2023-01-04T12:16:03.270Z,100579.35
2023-01-04T12:18:39.400Z,100571.84
2023-01-04T12:21:18.468Z,100566.98
2023-01-04T12:23:51.830Z,100555.34
2023-01-04T12:26:24.843Z,100549.27
2023-01-04T12:29:34.225Z,100545.70
2023-01-04T12:32:37.636Z,100539.46
2023-01-04T12:36:06.567Z,100533.23
2023-01-04T12:39:07.650Z,100524.11
2023-01-04T12:42:18.004Z,100518.23
2023-01-04T12:45:21.560Z,100508.41
2023-01-04T12:48:14.936Z,100498.86
2023-01-04T12:51:32.902Z,100493.54
2023-01-04T12:54:07.049Z,100467.69
2023-01-04T12:57:13.908Z,100478.44
2023-01-04T12:59:57.981Z,100454.39
2023-01-04T13:02:32.226Z,100455.92
2023-01-04T13:05:57.599Z,100461.95
2023-01-04T13:08:19.140Z,100454.11
2023-01-04T13:10:53.984Z,100453.54
2023-01-04T13:13:32.348Z,100452.57
2023-01-04T13:16:19.119Z,100430.63
2023-01-04T13:18:54.198Z,100435.41
2023-01-04T13:21:33.194Z,100430.34
2023-01-04T13:24:16.546Z,100424.92
2023-01-04T13:26:49.814Z,100403.09
2023-01-04T13:29:25.549Z,100378.45
2023-01-04T13:32:00.525Z,100407.08
2023-01-04T13:34:37.136Z,100403.60
2023-01-04T13:37:23.178Z,100401.27
2023-01-04T13:40:12.925Z,100386.27
2023-01-04T13:42:48.416Z,100375.96
2023-01-04T13:45:43.180Z,100398.59
2023-01-04T13:48:20.690Z,100385.73
2023-01-04T13:51:05.210Z,100379.21
2023-01-04T13:53:38.215Z,100380.73
2023-01-04T13:56:21.743Z,100379.31
2023-01-04T13:58:54.540Z,100367.66
2023-01-04T14:01:29.249Z,100381.59
2023-01-04T14:04:03.672Z,100384.21
2023-01-04T14:06:41.212Z,100380.04
2023-01-04T14:09:20.463Z,100376.25
2023-01-04T14:12:09.625Z,100365.92
2023-01-04T14:14:50.325Z,100371.28
2023-01-04T14:17:32.934Z,100369.42
2023-01-04T14:20:08.003Z,100353.01
2023-01-04T14:22:54.267Z,100356.45
2023-01-04T14:25:46.009Z,100353.20
2023-01-04T14:28:38.139Z,100339.11
2023-01-04T14:31:36.809Z,100331.52
2023-01-04T14:34:15.946Z,100326.48
2023-01-04T14:36:48.620Z,100324.80
2023-01-04T14:39:36.210Z,100303.66
2023-01-04T14:42:26.797Z,100311.66
2023-01-04T14:44:59.320Z,100302.56
2023-01-04T14:47:32.303Z,100293.23
2023-01-04T14:50:05.273Z,100272.48
2023-01-04T14:52:39.018Z,100278.77
2023-01-04T14:55:16.337Z,100271.50
2023-01-04T14:57:49.427Z,100269.33
2023-01-04T15:00:23.868Z,100267.20
2023-01-04T15:02:57.937Z,100259.34
2023-01-04T15:05:35.674Z,100254.05
2023-01-04T15:08:13.312Z,100240.24
2023-01-04T15:10:46.332Z,100237.72
2023-01-04T15:13:19.055Z,100232.52
2023-01-04T15:15:52.338Z,100230.77
2023-01-04T15:18:25.082Z,100226.26
2023-01-04T15:20:57.956Z,100223.85
2023-01-04T15:23:31.272Z,100222.03
2023-01-04T15:26:08.449Z,100218.39
2023-01-04T15:28:41.258Z,100218.00
2023-01-04T15:31:15.583Z,100212.15
2023-01-04T15:33:48.380Z,100192.00
2023-01-04T15:36:24.005Z,100212.16
2023-01-04T15:38:58.330Z,100212.27
2023-01-04T15:41:48.095Z,100207.01
2023-01-04T15:44:20.573Z,100202.10
2023-01-04T15:46:53.525Z,100199.91
2023-01-04T15:49:26.385Z,100165.74
2023-01-04T15:51:59.123Z,100188.11
2023-01-04T15:54:32.004Z,100194.13
2023-01-04T15:57:04.991Z,100196.49
2023-01-04T15:59:37.699Z,100188.80
2023-01-04T16:02:12.237Z,100179.98
2023-01-04T16:04:47.371Z,100176.12
2023-01-04T16:07:20.245Z,100159.80
2023-01-04T16:09:53.264Z,100155.11
2023-01-04T16:12:44.560Z,100168.23
2023-01-04T16:15:20.757Z,100162.20
2023-01-04T16:17:53.342Z,100159.58
2023-01-04T16:20:26.129Z,100147.77
2023-01-04T16:22:58.553Z,100145.56
2023-01-04T16:25:31.567Z,100147.02
2023-01-04T16:28:04.722Z,100148.21
2023-01-04T16:30:37.788Z,100146.95
2023-01-04T16:33:10.217Z,100145.96
2023-01-04T16:35:42.685Z,100141.05
2023-01-04T16:38:15.359Z,100138.71
2023-01-04T16:40:57.178Z,100136.57
2023-01-04T16:43:30.816Z,100130.80
2023-01-04T16:46:23.595Z,100130.38
2023-01-04T16:48:57.923Z,100124.64
2023-01-04T16:51:32.902Z,100111.77
2023-01-04T16:54:07.854Z,100106.36
2023-01-04T16:56:41.500Z,100106.88
2023-01-04T16:59:16.209Z,100105.31
2023-01-04T17:01:57.369Z,100104.95
2023-01-04T17:04:30.674Z,100101.59
2023-01-04T17:07:05.328Z,100104.53
2023-01-04T17:09:41.314Z,100099.42
2023-01-04T17:15:41.166Z,100090.34
2023-01-04T17:18:00.823Z,100072.38
2023-01-04T17:20:33.360Z,100079.41
2023-01-04T17:23:05.825Z,100074.30
2023-01-04T17:25:38.255Z,100067.23
2023-01-04T17:28:11.145Z,100069.15
2023-01-04T17:30:44.281Z,100065.86
2023-01-04T17:33:16.797Z,100067.67
2023-01-04T17:35:49.422Z,100053.59
2023-01-04T17:38:22.012Z,100049.63
2023-01-04T17:40:54.562Z,100052.52
2023-01-04T17:43:27.380Z,100049.27
2023-01-04T17:46:04.237Z,100048.80
2023-01-04T17:48:39.832Z,100047.27
2023-01-04T17:51:14.916Z,100037.89
2023-01-04T17:53:48.120Z,100036.33
2023-01-04T17:56:21.437Z,100034.38
2023-01-04T17:58:54.429Z,100024.30
2023-01-04T18:01:28.420Z,100002.98
2023-01-04T18:04:05.631Z,100013.20
2023-01-04T18:06:38.825Z,100014.02
2023-01-04T18:09:15.506Z,100011.27
2023-01-04T18:11:51.331Z,99997.92
2023-01-04T18:14:27.800Z,99992.17
2023-01-04T18:17:00.332Z,99993.54
2023-01-04T18:19:33.600Z,99968.86
2023-01-04T18:22:06.546Z,99989.32
2023-01-04T18:24:41.976Z,99980.75
2023-01-04T18:27:25.260Z,99984.54
2023-01-04T18:29:59.166Z,99979.41
2023-01-04T18:32:31.906Z,99972.48
2023-01-04T18:35:05.643Z,99973.13
2023-01-04T18:37:38.395Z,99963.80
2023-01-04T18:40:13.339Z,99960.70
2023-01-04T18:42:48.748Z,99955.06
2023-01-04T18:45:22.997Z,99953.35
2023-01-04T18:47:55.390Z,99938.11
2023-01-04T18:50:28.232Z,99935.08
2023-01-04T18:53:01.614Z,99926.69
2023-01-04T18:55:33.967Z,99928.61
2023-01-04T18:58:42.319Z,99930.73
2023-01-04T19:01:34.630Z,99922.15
2023-01-04T19:04:45.277Z,99928.16
2023-01-04T19:07:43.978Z,99929.41
2023-01-04T19:10:31.879Z,99920.03
2023-01-04T19:13:12.919Z,99919.73
2023-01-04T19:15:47.825Z,99922.48
2023-01-04T19:18:20.578Z,99911.79
2023-01-04T19:20:53.365Z,99904.74
2023-01-04T19:23:26.594Z,99903.84
2023-01-04T19:25:59.075Z,99905.21
2023-01-04T19:28:31.806Z,99895.34
2023-01-04T19:31:08.878Z,99892.17
2023-01-04T19:33:42.306Z,99871.05
2023-01-04T19:36:16.823Z,99887.23
2023-01-04T19:38:51.790Z,99884.31
2023-01-04T19:41:33.749Z,99875.66
2023-01-04T19:44:08.873Z,99871.77
2023-01-04T19:49:38.225Z,99859.55
2023-01-04T19:52:10.709Z,99840.85
2023-01-04T19:54:43.893Z,99849.59
2023-01-04T19:57:35.008Z,99857.23
2023-01-04T20:03:34.290Z,99849.95
2023-01-04T20:06:09.354Z,99847.77
2023-01-04T20:08:42.666Z,99830.88
2023-01-04T20:11:15.445Z,99842.61
2023-01-04T20:13:47.966Z,99835.77
2023-01-04T20:16:20.478Z,99833.80
2023-01-04T20:18:54.862Z,99833.48
2023-01-04T20:21:27.340Z,99811.12
2023-01-04T20:24:01.070Z,99807.75
2023-01-04T20:26:35.705Z,99816.68
2023-01-04T20:29:08.400Z,99820.56
2023-01-04T20:31:45.628Z,99810.92
2023-01-04T20:34:18.444Z,99823.48
2023-01-04T20:36:51.774Z,99824.34
2023-01-04T20:39:25.045Z,99826.48
2023-01-04T20:42:15.558Z,99821.52
2023-01-04T20:44:48.038Z,99817.56
2023-01-04T20:47:21.107Z,99825.66
2023-01-04T20:49:53.674Z,99822.03
2023-01-04T20:52:26.187Z,99818.30
2023-01-04T20:54:59.046Z,99815.64
2023-01-04T20:57:32.421Z,99805.96
2023-01-04T21:00:05.463Z,99817.48
2023-01-04T21:02:38.962Z,99811.08
2023-01-04T21:05:12.774Z,99805.34
2023-01-04T21:07:45.721Z,99803.38
2023-01-04T21:10:18.290Z,99799.78
2023-01-04T21:12:50.889Z,99793.61
2023-01-04T21:15:23.707Z,99789.37
2023-01-04T21:17:56.206Z,99782.14
2023-01-04T21:20:28.734Z,99783.09
2023-01-04T21:23:03.083Z,99777.50
2023-01-04T21:25:39.543Z,99778.40
2023-01-04T21:28:12.791Z,99772.19
2023-01-04T21:30:46.702Z,99771.42
2023-01-04T21:33:21.434Z,99765.70
2023-01-04T21:35:52.668Z,99758.48
2023-01-04T21:38:25.615Z,99754.38
2023-01-04T21:40:58.038Z,99756.02
2023-01-04T21:43:30.752Z,99757.41
2023-01-04T21:46:09.264Z,99741.12
2023-01-04T21:48:41.999Z,99745.07
2023-01-04T21:51:15.601Z,99744.55
2023-01-04T21:53:48.481Z,99742.39
2023-01-04T21:56:23.110Z,99732.95
2023-01-04T21:58:55.928Z,99727.73
2023-01-04T22:01:34.927Z,99722.98
2023-01-04T22:04:08.573Z,99715.52
2023-01-04T22:06:42.187Z,99705.46
2023-01-04T22:09:15.017Z,99692.09
2023-01-04T22:11:48.516Z,99691.80
2023-01-04T22:14:21.616Z,99692.04
2023-01-04T22:16:54.341Z,99686.44
2023-01-04T22:19:26.943Z,99685.77
2023-01-04T22:21:59.457Z,99690.89
2023-01-04T22:24:37.473Z,99679.91
2023-01-04T22:27:10.467Z,99686.78
2023-01-04T22:29:42.945Z,99686.83
2023-01-04T22:32:15.435Z,99682.27
2023-01-04T22:34:48.492Z,99689.14
2023-01-04T22:37:21.024Z,99687.46
2023-01-04T22:39:53.791Z,99673.14
2023-01-04T22:42:26.393Z,99654.59
2023-01-04T22:44:58.955Z,99694.67
2023-01-04T22:47:31.694Z,99689.23
2023-01-04T22:50:04.652Z,99693.25
2023-01-04T22:52:37.083Z,99689.70
2023-01-04T22:55:10.408Z,99697.58
2023-01-04T22:57:44.198Z,99702.64
2023-01-04T23:00:17.916Z,99686.29
2023-01-04T23:02:50.507Z,99697.24
2023-01-04T23:05:23.231Z,99664.21
2023-01-04T23:07:55.640Z,99693.27
2023-01-04T23:10:28.345Z,99676.98
2023-01-04T23:13:00.634Z,99683.10
2023-01-04T23:15:33.679Z,99683.84
2023-01-04T23:18:06.731Z,99675.50
2023-01-04T23:20:39.162Z,99677.87
2023-01-04T23:23:11.576Z,99673.70
2023-01-04T23:25:44.117Z,99677.13
2023-01-04T23:28:16.550Z,99671.96
2023-01-04T23:30:49.401Z,99663.94
2023-01-04T23:33:21.705Z,99657.55
2023-01-04T23:35:54.120Z,99656.48
2023-01-04T23:38:26.408Z,99657.11
2023-01-04T23:40:59.219Z,99653.77
2023-01-04T23:43:31.643Z,99657.30
2023-01-04T23:46:08.210Z,99650.85
2023-01-04T23:48:40.708Z,99656.34
2023-01-04T23:51:14.962Z,99656.80
2023-01-04T23:53:47.326Z,99652.09
2023-01-04T23:56:19.767Z,99660.45
2023-01-04T23:58:52.035Z,99663.28
